Time;durP1;ratioP1;P1;durP2;ratioP2;P2;SDS_P1;SDS_P2;PMS_P1;PMS_P2;Temp;Humidity;BMP_temperature;BMP_pressure;BME280_temperature;BME280_humidity;BME280_pressure;Samples;Min_cycle;Max_cycle;Signal;HPM_P1;HPM_P2
2021/08/19 00:01:55;;;;;;;2.65;1.65;;;20.40;71.40;;;;;;5081150;28;20051;-75
2021/08/19 00:04:21;;;;;;;2.22;1.80;;;20.40;71.40;;;;;;5077452;28;20109;-75
2021/08/19 00:06:47;;;;;;;2.13;1.77;;;20.30;71.30;;;;;;5078024;28;20445;-75
2021/08/19 00:09:13;;;;;;;2.90;1.70;;;20.40;71.40;;;;;;5059773;28;20071;-75
2021/08/19 00:11:39;;;;;;;3.78;1.60;;;20.40;71.40;;;;;;5077169;28;20067;-75
2021/08/19 00:14:05;;;;;;;2.05;1.80;;;20.40;71.40;;;;;;5077318;28;20033;-75
2021/08/19 00:16:31;;;;;;;2.40;1.77;;;20.30;71.30;;;;;;5077188;28;20048;-75
2021/08/19 00:18:57;;;;;;;2.60;1.70;;;20.40;71.40;;;;;;5077512;28;20325;-74
2021/08/19 00:21:22;;;;;;;3.38;1.98;;;20.40;71.30;;;;;;5077187;28;20048;-75
2021/08/19 00:23:48;;;;;;;3.45;1.70;;;20.40;71.40;;;;;;5077077;28;20037;-76
2021/08/19 00:26:14;;;;;;;2.53;1.77;;;20.40;71.40;;;;;;5077524;28;20044;-75
2021/08/19 00:28:40;;;;;;;2.08;1.60;;;20.40;71.40;;;;;;5076864;28;20121;-75
2021/08/19 00:31:06;;;;;;;2.65;1.83;;;20.30;71.40;;;;;;5076636;28;20087;-75
2021/08/19 00:33:31;;;;;;;1.90;1.67;;;20.40;71.40;;;;;;5094631;28;20044;-75
2021/08/19 00:35:58;;;;;;;2.58;1.67;;;20.40;71.40;;;;;;5097198;28;20036;-75
2021/08/19 00:38:24;;;;;;;1.90;1.50;;;20.40;71.40;;;;;;5097128;28;20052;-76
2021/08/19 00:40:50;;;;;;;2.03;1.48;;;20.40;71.40;;;;;;5097651;28;20036;-75
2021/08/19 00:43:17;;;;;;;2.28;1.58;;;20.30;71.40;;;;;;5097175;28;20073;-75
2021/08/19 00:45:43;;;;;;;2.35;1.50;;;20.40;71.40;;;;;;5096906;28;20071;-75
2021/08/19 00:48:09;;;;;;;2.05;1.50;;;20.40;71.50;;;;;;5097023;28;20067;-75
2021/08/19 00:50:37;;;;;;;3.00;1.73;;;20.40;71.40;;;;;;5096941;28;20068;-75
2021/08/19 00:53:03;;;;;;;3.47;1.70;;;20.40;71.40;;;;;;5096982;28;20040;-75
2021/08/19 00:55:29;;;;;;;2.33;1.70;;;20.40;71.50;;;;;;5096539;28;20043;-75
2021/08/19 00:57:56;;;;;;;2.33;1.45;;;20.40;71.40;;;;;;5096304;28;20047;-75
2021/08/19 01:00:22;;;;;;;2.00;1.60;;;20.40;72.00;;;;;;5096407;28;20065;-75
2021/08/19 01:02:58;;;;;;;2.20;1.55;;;20.40;71.50;;;;;;5092655;28;20051;-74
2021/08/19 01:05:29;;;;;;;2.45;1.95;;;20.40;71.50;;;;;;5096415;28;20343;-75
2021/08/19 01:07:54;;;;;;;2.85;1.73;;;20.40;71.50;;;;;;5079022;28;20048;-75
2021/08/19 01:10:20;;;;;;;2.30;1.58;;;20.40;71.50;;;;;;5075793;28;20052;-75
2021/08/19 01:12:46;;;;;;;2.10;1.63;;;20.40;71.50;;;;;;5075907;28;20403;-75
2021/08/19 01:15:13;;;;;;;2.60;1.98;;;20.40;71.50;;;;;;5076687;28;20045;-75
2021/08/19 01:17:39;;;;;;;3.17;1.77;;;20.40;71.50;;;;;;5076120;28;20078;-75
2021/08/19 01:20:07;;;;;;;2.00;1.40;;;20.40;71.50;;;;;;5076637;28;20455;-75
2021/08/19 01:22:33;;;;;;;2.45;1.80;;;20.40;71.50;;;;;;5076072;28;20040;-75
2021/08/19 01:24:59;;;;;;;2.33;1.70;;;20.40;71.60;;;;;;5075453;28;20037;-75
2021/08/19 01:27:25;;;;;;;2.40;1.90;;;20.40;71.60;;;;;;5091750;28;20343;-75
2021/08/19 01:29:51;;;;;;;2.13;1.40;;;20.40;71.50;;;;;;5096175;28;20040;-75
2021/08/19 01:32:18;;;;;;;2.50;1.67;;;20.40;71.50;;;;;;5096119;28;20040;-74
2021/08/19 01:34:44;;;;;;;3.03;1.85;;;20.30;71.50;;;;;;5095549;28;20303;-75
2021/08/19 01:37:12;;;;;;;1.95;1.65;;;20.40;71.50;;;;;;5096120;28;20036;-74
2021/08/19 01:39:38;;;;;;;2.38;1.75;;;20.40;71.60;;;;;;5095794;28;20040;-75
2021/08/19 01:42:04;;;;;;;1.90;1.40;;;20.40;71.60;;;;;;5096496;28;20074;-74
2021/08/19 01:44:31;;;;;;;1.95;1.50;;;20.40;71.60;;;;;;5095496;28;20097;-75
2021/08/19 01:46:59;;;;;;;1.95;1.65;;;20.40;71.60;;;;;;5095726;28;20046;-75
2021/08/19 01:49:29;;;;;;;2.72;1.70;;;20.40;71.60;;;;;;5095599;28;20048;-75
2021/08/19 01:51:55;;;;;;;2.22;1.65;;;20.40;71.70;;;;;;5095580;28;20044;-75
2021/08/19 01:54:25;;;;;;;2.40;1.70;;;20.30;71.60;;;;;;5095770;28;20116;-75
2021/08/19 01:56:51;;;;;;;2.63;1.55;;;20.30;71.60;;;;;;5084092;28;20036;-75
2021/08/19 01:59:17;;;;;;;2.80;1.90;;;20.30;71.60;;;;;;5075085;28;20105;-75
2021/08/19 02:01:43;;;;;;;2.45;1.45;;;20.30;71.60;;;;;;5078831;28;20032;-75
2021/08/19 02:04:09;;;;;;;1.52;1.38;;;20.30;71.60;;;;;;5096075;28;20123;-75
2021/08/19 02:06:35;;;;;;;2.03;1.77;;;20.30;71.60;;;;;;5095808;28;20068;-74
2021/08/19 02:09:01;;;;;;;2.00;1.80;;;20.30;71.60;;;;;;5095785;28;20047;-75
2021/08/19 02:11:27;;;;;;;2.50;1.65;;;20.30;71.50;;;;;;5095407;28;20050;-75
2021/08/19 02:13:53;;;;;;;2.00;1.70;;;20.30;71.60;;;;;;5095450;28;20051;-75
2021/08/19 02:16:19;;;;;;;2.15;1.33;;;20.30;71.60;;;;;;5095528;28;20056;-75
2021/08/19 02:18:45;;;;;;;3.45;1.83;;;20.30;71.60;;;;;;5095505;28;20044;-75
2021/08/19 02:21:11;;;;;;;2.00;1.50;;;20.30;71.60;;;;;;5094919;28;20054;-75
2021/08/19 02:23:37;;;;;;;2.47;1.75;;;20.30;71.60;;;;;;5095537;28;20346;-75
2021/08/19 02:26:03;;;;;;;2.40;1.80;;;20.30;71.60;;;;;;5095047;28;20192;-75
2021/08/19 02:28:28;;;;;;;1.75;1.52;;;20.30;71.60;;;;;;5095626;28;20431;-74
2021/08/19 02:30:55;;;;;;;2.35;1.58;;;20.30;71.60;;;;;;5095437;28;20445;-74
2021/08/19 02:33:21;;;;;;;1.90;1.70;;;20.30;71.60;;;;;;5077859;28;20053;-75
2021/08/19 02:35:47;;;;;;;2.22;1.50;;;20.30;71.70;;;;;;5075303;28;20335;-75
2021/08/19 02:38:14;;;;;;;1.63;1.48;;;20.30;71.60;;;;;;5074396;28;20386;-75
2021/08/19 02:40:40;;;;;;;2.70;1.77;;;20.30;71.70;;;;;;5074750;28;20071;-75
2021/08/19 02:43:09;;;;;;;1.77;1.60;;;20.30;71.70;;;;;;5075207;28;20070;-75
2021/08/19 02:45:36;;;;;;;2.85;1.88;;;20.30;71.70;;;;;;5074908;28;20036;-75
2021/08/19 02:48:02;;;;;;;2.05;1.80;;;20.30;71.60;;;;;;5074963;28;20304;-75
2021/08/19 02:50:28;;;;;;;1.98;1.45;;;20.30;71.70;;;;;;5074630;28;20159;-75
2021/08/19 02:52:55;;;;;;;2.35;1.77;;;20.30;71.60;;;;;;5074721;28;20074;-75
2021/08/19 02:55:21;;;;;;;2.53;1.83;;;20.30;71.70;;;;;;5075134;28;20139;-75
2021/08/19 02:57:47;;;;;;;2.40;1.90;;;20.30;71.70;;;;;;5094984;28;20379;-75
2021/08/19 03:00:13;;;;;;;2.33;1.77;;;20.30;71.70;;;;;;5094079;28;20062;-75
2021/08/19 03:02:39;;;;;;;1.58;1.48;;;20.30;71.70;;;;;;5094853;28;20343;-75
2021/08/19 03:05:06;;;;;;;2.03;1.50;;;20.30;71.70;;;;;;5094934;28;20089;-75
2021/08/19 03:07:32;;;;;;;2.35;1.65;;;20.30;71.70;;;;;;5094753;28;20069;-75
2021/08/19 03:09:58;;;;;;;2.10;1.60;;;20.30;71.70;;;;;;5094835;28;20126;-75
2021/08/19 03:12:24;;;;;;;1.45;1.35;;;20.30;71.70;;;;;;5094818;28;20051;-76
2021/08/19 03:14:50;;;;;;;1.98;1.63;;;20.30;71.70;;;;;;5095045;28;20036;-75
2021/08/19 03:17:16;;;;;;;1.42;1.20;;;20.30;71.70;;;;;;5094763;28;20358;-74
2021/08/19 03:19:42;;;;;;;2.67;2.05;;;20.30;71.70;;;;;;5095008;28;20051;-74
2021/08/19 03:22:09;;;;;;;2.85;1.75;;;20.30;71.70;;;;;;5095219;28;20112;-74
2021/08/19 03:24:35;;;;;;;3.20;1.98;;;20.30;71.70;;;;;;5098933;28;20055;-75
2021/08/19 03:27:03;;;;;;;2.20;1.67;;;20.30;71.70;;;;;;5084033;28;20125;-75
2021/08/19 03:29:32;;;;;;;2.58;1.60;;;20.30;71.60;;;;;;5078173;28;20044;-75
2021/08/19 03:31:59;;;;;;;2.15;1.40;;;20.30;71.70;;;;;;5078910;28;20143;-74
2021/08/19 03:34:25;;;;;;;2.03;1.58;;;20.30;71.70;;;;;;5078088;28;20049;-75
2021/08/19 03:36:50;;;;;;;2.63;1.65;;;20.30;71.80;;;;;;5078282;28;20048;-74
2021/08/19 03:39:17;;;;;;;2.40;1.83;;;20.30;71.80;;;;;;5078162;28;20075;-75
2021/08/19 03:41:43;;;;;;;1.90;1.70;;;20.30;71.80;;;;;;5078072;28;20072;-75
2021/08/19 03:44:15;;;;;;;2.45;1.58;;;20.30;71.70;;;;;;5077755;28;20040;-75
2021/08/19 03:46:42;;;;;;;3.33;1.60;;;20.30;71.80;;;;;;5077440;28;20343;-75
2021/08/19 03:49:08;;;;;;;2.13;1.58;;;20.30;71.80;;;;;;5077743;28;20097;-75
2021/08/19 03:51:35;;;;;;;1.63;1.42;;;20.30;71.80;;;;;;5077856;28;20067;-75
2021/08/19 03:54:00;;;;;;;2.50;1.73;;;20.30;71.80;;;;;;5077859;28;20090;-75
2021/08/19 03:56:30;;;;;;;1.92;1.58;;;20.30;71.80;;;;;;5087652;28;20040;-75
2021/08/19 03:58:56;;;;;;;2.28;1.77;;;20.30;71.80;;;;;;5097988;28;20439;-75
2021/08/19 04:01:22;;;;;;;2.00;1.80;;;20.30;71.80;;;;;;5095501;28;20052;-74
2021/08/19 04:03:50;;;;;;;2.55;1.70;;;20.30;71.80;;;;;;5078036;28;20048;-75
2021/08/19 04:06:17;;;;;;;2.47;1.58;;;20.30;71.80;;;;;;5059970;28;20127;-75
2021/08/19 04:08:43;;;;;;;2.95;1.77;;;20.30;71.90;;;;;;5077725;28;20048;-74
2021/08/19 04:11:08;;;;;;;2.53;1.63;;;20.30;71.80;;;;;;5077491;28;20040;-74
2021/08/19 04:13:35;;;;;;;2.15;1.85;;;20.30;71.90;;;;;;5077087;28;20074;-73
2021/08/19 04:16:01;;;;;;;2.08;1.42;;;20.30;71.80;;;;;;5077524;28;20090;-72
2021/08/19 04:18:27;;;;;;;2.35;1.50;;;20.20;71.80;;;;;;5077435;28;20071;-72
2021/08/19 04:20:53;;;;;;;1.98;1.42;;;20.30;71.80;;;;;;5077014;28;20041;-72
2021/08/19 04:23:19;;;;;;;2.03;1.83;;;20.30;71.90;;;;;;5077306;28;20036;-72
2021/08/19 04:25:45;;;;;;;2.75;1.83;;;20.30;71.80;;;;;;5077117;28;20056;-72
2021/08/19 04:28:10;;;;;;;2.50;1.52;;;20.30;71.80;;;;;;5077155;28;20352;-72
2021/08/19 04:30:36;;;;;;;1.50;1.30;;;20.30;71.80;;;;;;5077103;28;20036;-72
2021/08/19 04:33:02;;;;;;;2.22;1.80;;;20.30;71.90;;;;;;5091287;28;20044;-72
2021/08/19 04:35:31;;;;;;;2.13;1.48;;;20.30;71.90;;;;;;5096636;28;20076;-72
2021/08/19 04:37:58;;;;;;;2.75;1.60;;;20.30;71.90;;;;;;5096979;28;20131;-73
2021/08/19 04:40:25;;;;;;;2.00;1.55;;;20.20;71.80;;;;;;5097194;28;20117;-73
2021/08/19 04:42:51;;;;;;;2.65;1.42;;;20.30;71.90;;;;;;5096463;28;20373;-73
2021/08/19 04:45:17;;;;;;;2.80;1.60;;;20.30;71.90;;;;;;5096979;28;20036;-72
2021/08/19 04:47:43;;;;;;;2.28;1.95;;;20.20;71.80;;;;;;5096860;28;20054;-73
2021/08/19 04:50:09;;;;;;;2.75;1.48;;;20.30;71.90;;;;;;5097037;28;20040;-72
2021/08/19 04:52:35;;;;;;;2.40;1.70;;;20.30;71.90;;;;;;5096662;28;20036;-73
2021/08/19 04:55:02;;;;;;;3.05;1.42;;;20.30;71.90;;;;;;5096705;28;20479;-72
2021/08/19 04:57:30;;;;;;;2.60;1.92;;;20.30;71.90;;;;;;5096074;28;20037;-72
2021/08/19 04:59:55;;;;;;;1.88;1.50;;;20.30;72.00;;;;;;5071978;28;20109;-72
2021/08/19 05:02:21;;;;;;;3.60;1.70;;;20.30;72.00;;;;;;5067746;28;20057;-73
2021/08/19 05:04:47;;;;;;;2.05;1.60;;;20.20;71.90;;;;;;5056270;28;20037;-72
2021/08/19 05:07:13;;;;;;;3.28;1.90;;;20.30;71.90;;;;;;5056424;28;20041;-72
2021/08/19 05:09:39;;;;;;;1.83;1.50;;;20.30;72.00;;;;;;5056288;28;20084;-73
2021/08/19 05:12:05;;;;;;;2.78;1.50;;;20.30;72.00;;;;;;5056380;28;20044;-72
2021/08/19 05:14:33;;;;;;;1.67;1.55;;;20.30;72.00;;;;;;5055804;28;20040;-72
2021/08/19 05:16:59;;;;;;;2.67;1.98;;;20.30;71.90;;;;;;5056261;28;20094;-72
2021/08/19 05:19:25;;;;;;;2.70;1.90;;;20.30;72.00;;;;;;5055855;28;20116;-72
2021/08/19 05:21:51;;;;;;;2.08;1.35;;;20.30;72.00;;;;;;5055926;28;20041;-72
2021/08/19 05:24:17;;;;;;;2.97;1.80;;;20.30;72.10;;;;;;5071719;28;20032;-71
2021/08/19 05:26:42;;;;;;;2.10;1.65;;;20.20;72.00;;;;;;5075573;28;20048;-73
2021/08/19 05:29:08;;;;;;;3.90;1.92;;;20.20;72.10;;;;;;5075702;28;20032;-75
2021/08/19 05:31:34;;;;;;;4.00;2.40;;;20.30;72.50;;;;;;5075725;28;20123;-72
2021/08/19 05:34:07;;;;;;;5.65;3.28;;;20.30;72.40;;;;;;5076229;28;20068;-73
2021/08/19 05:36:34;;;;;;;5.97;3.38;;;20.20;72.70;;;;;;5076372;28;20054;-71
2021/08/19 05:39:00;;;;;;;6.57;3.50;;;20.20;72.90;;;;;;5092900;28;20048;-72
2021/08/19 05:41:27;;;;;;;9.00;4.03;;;20.20;73.10;;;;;;5096086;28;20055;-66
2021/08/19 05:43:53;;;;;;;8.80;3.97;;;20.20;73.20;;;;;;5095459;28;20330;-72
2021/08/19 05:46:18;;;;;;;7.45;3.72;;;20.20;73.50;;;;;;5094948;28;20040;-70
2021/08/19 05:48:44;;;;;;;7.63;3.80;;;20.20;73.60;;;;;;5077904;28;20040;-71
2021/08/19 05:51:11;;;;;;;6.93;3.95;;;20.20;73.70;;;;;;5095558;28;20040;-72
2021/08/19 05:53:41;;;;;;;6.35;3.88;;;20.20;73.70;;;;;;5083702;28;20068;-74
2021/08/19 05:56:07;;;;;;;6.93;3.83;;;20.20;73.90;;;;;;5075481;28;20041;-71
2021/08/19 05:58:34;;;;;;;6.28;3.45;;;20.30;74.00;;;;;;5075169;28;20044;-72
2021/08/19 06:00:59;;;;;;;9.13;3.80;;;20.30;74.10;;;;;;5091020;28;20236;-71
2021/08/19 06:03:25;;;;;;;9.27;3.65;;;20.30;74.20;;;;;;5093437;28;20102;-71
2021/08/19 06:05:51;;;;;;;7.25;3.83;;;20.30;74.30;;;;;;5095646;28;20138;-73
2021/08/19 06:08:18;;;;;;;5.28;3.30;;;20.30;74.30;;;;;;5095636;28;20044;-71
2021/08/19 06:10:50;;;;;;;;;;;20.30;74.20;;;;;;5096283;28;20044;-71
2021/08/19 06:13:17;;;;;;;6.75;3.80;;;20.30;73.90;;;;;;5095414;28;20413;-71
2021/08/19 06:15:43;;;;;;;5.68;3.10;;;20.40;74.20;;;;;;5095149;28;20351;-72
2021/08/19 06:18:10;;;;;;;6.40;3.45;;;20.40;74.20;;;;;;5095467;28;20043;-72
2021/08/19 06:20:37;;;;;;;4.75;3.55;;;20.40;74.20;;;;;;5095454;28;20116;-72
2021/08/19 06:23:10;;;;;;;6.53;3.58;;;20.30;74.20;;;;;;5094781;28;20048;-71
2021/08/19 06:25:37;;;;;;;7.82;3.90;;;20.40;74.40;;;;;;5095761;28;20112;-71
2021/08/19 06:28:04;;;;;;;7.30;3.58;;;20.40;74.50;;;;;;5095499;28;20039;-72
2021/08/19 06:30:32;;;;;;;6.68;3.78;;;20.40;74.30;;;;;;5095112;28;20044;-71
2021/08/19 06:32:59;;;;;;;8.90;3.92;;;20.40;74.40;;;;;;5081625;28;20051;-67
2021/08/19 06:35:25;;;;;;;8.15;3.40;;;20.40;74.50;;;;;;5089008;28;20044;-73
2021/08/19 06:37:51;;;;;;;8.95;3.88;;;20.40;74.50;;;;;;5085852;28;20349;-72
2021/08/19 06:40:17;;;;;;;6.70;3.80;;;20.40;74.50;;;;;;5081264;28;20059;-72
2021/08/19 06:42:44;;;;;;;10.73;3.50;;;20.40;74.70;;;;;;5085183;28;20044;-71
2021/08/19 06:45:11;;;;;;;5.68;3.72;;;20.40;74.60;;;;;;5084064;28;20105;-71
2021/08/19 06:47:36;;;;;;;9.63;3.95;;;20.40;74.80;;;;;;5081938;28;20105;-73
2021/08/19 06:50:03;;;;;;;7.85;3.60;;;20.40;74.80;;;;;;5095144;28;20336;-73
2021/08/19 06:52:29;;;;;;;11.00;4.55;;;20.40;74.90;;;;;;5094777;28;20039;-70
2021/08/19 06:54:56;;;;;;;8.25;4.03;;;20.40;75.10;;;;;;5095280;28;20059;-75
2021/08/19 06:57:22;;;;;;;6.03;3.78;;;20.40;75.20;;;;;;5095761;28;20462;-72
2021/08/19 06:59:48;;;;;;;5.30;3.95;;;20.40;75.30;;;;;;5099124;28;20051;-71
2021/08/19 07:02:14;;;;;;;7.15;4.85;;;20.30;75.40;;;;;;5098160;28;20363;-70
2021/08/19 07:04:40;;;;;;;6.40;3.88;;;20.40;75.40;;;;;;5095500;28;20032;-68
2021/08/19 07:07:06;;;;;;;8.40;4.63;;;20.40;75.50;;;;;;5078459;28;20043;-72
2021/08/19 07:09:32;;;;;;;5.82;3.90;;;20.30;75.50;;;;;;5078363;28;20052;-73
2021/08/19 07:11:58;;;;;;;8.90;3.95;;;20.30;75.50;;;;;;5078431;28;20040;-71
2021/08/19 07:14:24;;;;;;;7.40;4.22;;;20.30;75.60;;;;;;5079113;28;20593;-73
2021/08/19 07:16:50;;;;;;;7.22;4.15;;;20.30;75.80;;;;;;5078456;28;20099;-73
2021/08/19 07:19:15;;;;;;;5.30;3.80;;;20.30;75.80;;;;;;5080315;28;20355;-72
2021/08/19 07:21:44;;;;;;;7.22;4.43;;;20.30;75.90;;;;;;5086946;28;20051;-73
2021/08/19 07:24:10;;;;;;;6.45;3.90;;;20.30;75.90;;;;;;5077802;28;20033;-73
2021/08/19 07:26:36;;;;;;;7.30;3.92;;;20.40;76.00;;;;;;5089927;28;20434;-70
2021/08/19 07:29:02;;;;;;;8.10;3.80;;;20.30;76.00;;;;;;5092267;28;20050;-69
2021/08/19 07:31:28;;;;;;;8.85;4.63;;;20.30;76.00;;;;;;5098496;28;20101;-70
2021/08/19 07:33:54;;;;;;;7.70;4.00;;;20.30;76.30;;;;;;5098192;28;20062;-70
2021/08/19 07:36:21;;;;;;;7.70;4.18;;;20.30;76.60;;;;;;5091526;28;20033;-69
2021/08/19 07:38:47;;;;;;;5.68;3.63;;;20.40;77.00;;;;;;5077599;28;20041;-68
2021/08/19 07:41:13;;;;;;;6.43;3.97;;;20.30;76.90;;;;;;5085804;28;20032;-69
2021/08/19 07:43:40;;;;;;;6.10;3.95;;;20.40;77.40;;;;;;5084820;28;20067;-68
2021/08/19 07:46:05;;;;;;;5.20;3.63;;;20.40;77.00;;;;;;5098201;28;20071;-69
2021/08/19 07:48:31;;;;;;;6.93;4.30;;;20.40;76.90;;;;;;5090526;28;20499;-69
2021/08/19 07:50:57;;;;;;;8.57;4.50;;;20.40;77.40;;;;;;5077490;28;20044;-69
2021/08/19 07:53:24;;;;;;;8.80;4.25;;;20.40;77.50;;;;;;5059968;28;20119;-69
2021/08/19 07:55:50;;;;;;;5.55;4.80;;;20.40;77.50;;;;;;5077368;28;20451;-67
2021/08/19 07:58:15;;;;;;;9.27;4.38;;;20.40;77.50;;;;;;5077848;28;20072;-68
2021/08/19 08:00:41;;;;;;;6.30;4.40;;;20.30;77.60;;;;;;5084375;28;20043;-68
2021/08/19 08:03:07;;;;;;;8.23;4.63;;;20.40;77.50;;;;;;5097637;28;20036;-66
2021/08/19 08:05:35;;;;;;;7.03;4.53;;;20.40;77.70;;;;;;5093951;28;20036;-68
2021/08/19 08:08:07;;;;;;;6.63;4.40;;;20.40;77.60;;;;;;5076902;28;20052;-69
2021/08/19 08:10:38;;;;;;;5.15;3.88;;;20.30;77.60;;;;;;5076390;28;20351;-68
2021/08/19 08:13:06;;;;;;;6.65;3.60;;;20.40;77.30;;;;;;5077221;28;20063;-68
2021/08/19 08:15:33;;;;;;;9.15;4.00;;;20.40;77.10;;;;;;5077094;28;20032;-70
2021/08/19 08:17:59;;;;;;;6.40;4.00;;;20.30;76.90;;;;;;5059239;28;20340;-68
2021/08/19 08:20:28;;;;;;;6.15;3.70;;;20.40;77.10;;;;;;5076744;28;20040;-68
2021/08/19 08:22:57;;;;;;;7.68;3.95;;;20.40;76.80;;;;;;5077250;28;20047;-68
2021/08/19 08:25:25;;;;;;;6.15;4.22;;;20.40;77.00;;;;;;5088221;28;20040;-69
2021/08/19 08:28:04;;;;;;;9.23;4.10;;;20.40;77.20;;;;;;5076745;28;20042;-68
2021/08/19 08:30:34;;;;;;;7.40;3.95;;;20.40;77.50;;;;;;5077436;28;20193;-68
2021/08/19 08:33:01;;;;;;;5.60;3.65;;;20.40;77.70;;;;;;5076749;28;20062;-67
2021/08/19 08:35:30;;;;;;;6.53;3.75;;;20.40;77.80;;;;;;5076760;28;20041;-69
2021/08/19 08:37:56;;;;;;;6.68;3.60;;;20.40;78.00;;;;;;5077240;28;20041;-67
2021/08/19 08:40:23;;;;;;;5.85;3.58;;;20.40;78.10;;;;;;5076466;28;20099;-68
2021/08/19 08:42:49;;;;;;;5.55;4.50;;;20.40;78.10;;;;;;5076473;28;20060;-67
2021/08/19 08:45:17;;;;;;;9.68;4.78;;;20.40;78.10;;;;;;5076045;28;20076;-68
2021/08/19 08:47:45;;;;;;;8.93;4.05;;;20.50;78.10;;;;;;5076936;28;20044;-68
2021/08/19 08:50:11;;;;;;;5.15;3.50;;;20.50;78.00;;;;;;5085509;28;20443;-68
2021/08/19 08:52:39;;;;;;;7.03;3.70;;;20.50;77.80;;;;;;5079699;28;20382;-69
2021/08/19 08:55:05;;;;;;;5.80;3.90;;;20.50;77.70;;;;;;5076496;28;20068;-69
2021/08/19 08:57:35;;;;;;;7.15;4.15;;;20.50;77.70;;;;;;5076190;28;20037;-70
2021/08/19 09:00:03;;;;;;;4.85;3.80;;;20.50;77.80;;;;;;5076442;28;20086;-71
2021/08/19 09:02:29;;;;;;;12.27;6.22;;;20.50;77.70;;;;;;5084109;28;20093;-70
2021/08/19 09:05:21;;;;;;;8.70;4.97;;;20.50;77.50;;;;;;5080042;28;20339;-67
2021/08/19 09:07:59;;;;;;;11.40;4.57;;;20.50;77.30;;;;;;5076843;28;20044;-71
2021/08/19 09:10:32;;;;;;;10.55;4.53;;;20.50;77.40;;;;;;5091931;28;20427;-70
2021/08/19 09:13:14;;;;;;;8.60;4.03;;;20.50;77.50;;;;;;5091744;28;20082;-69
2021/08/19 09:15:40;;;;;;;7.97;4.18;;;20.50;77.40;;;;;;5078155;28;20435;-74
2021/08/19 09:18:06;;;;;;;9.13;4.78;;;20.50;77.60;;;;;;5086451;28;20048;-70
2021/08/19 09:20:40;;;;;;;7.03;4.43;;;20.50;77.90;;;;;;5075928;28;20037;-69
2021/08/19 09:23:15;;;;;;;74.82;24.83;;;20.60;77.80;;;;;;5093414;28;20036;-71
2021/08/19 09:25:43;;;;;;;85.97;27.60;;;20.50;77.50;;;;;;5096257;28;20051;-72
2021/08/19 09:28:17;;;;;;;41.33;16.50;;;20.50;77.70;;;;;;5096708;28;20046;-68
2021/08/19 09:30:48;;;;;;;38.67;13.15;;;20.50;77.70;;;;;;5095764;28;20051;-76
2021/08/19 09:33:16;;;;;;;38.33;15.95;;;20.50;78.00;;;;;;5095366;28;20044;-71
2021/08/19 09:35:44;;;;;;;20.85;9.75;;;20.50;78.00;;;;;;5075691;28;20460;-72
2021/08/19 09:38:19;;;;;;;16.30;7.90;;;20.50;77.80;;;;;;5075616;28;20093;-72
2021/08/19 09:41:21;;;;;;;21.20;10.35;;;20.40;77.50;;;;;;5094479;28;20075;-72
2021/08/19 09:43:48;;;;;;;12.02;7.85;;;20.40;77.80;;;;;;4994142;28;20045;-72
2021/08/19 09:46:34;;;;;;;10.85;6.70;;;20.40;78.40;;;;;;5074302;28;20126;-72
2021/08/19 09:49:27;;;;;;;13.82;6.38;;;20.40;78.20;;;;;;5095957;28;20040;-70
2021/08/19 09:52:13;;;;;;;7.90;5.13;;;20.40;78.40;;;;;;5095672;28;20119;-72
2021/08/19 09:54:42;;;;;;;8.75;5.63;;;20.40;78.40;;;;;;5095506;28;20040;-73
2021/08/19 09:57:10;;;;;;;10.00;5.65;;;20.30;78.70;;;;;;5096000;28;20044;-72
2021/08/19 09:59:38;;;;;;;10.45;5.30;;;20.40;78.80;;;;;;5095023;28;20059;-72
2021/08/19 10:02:08;;;;;;;8.25;4.93;;;20.40;78.80;;;;;;5088848;28;20029;-72
2021/08/19 10:04:35;;;;;;;7.82;5.05;;;20.40;78.70;;;;;;5075193;28;20481;-73
2021/08/19 10:07:03;;;;;;;10.45;5.03;;;20.40;78.80;;;;;;5075208;28;20432;-73
2021/08/19 10:09:29;;;;;;;8.60;4.90;;;20.40;78.80;;;;;;5083303;28;20123;-70
2021/08/19 10:11:57;;;;;;;10.38;5.03;;;20.40;79.00;;;;;;5091558;28;20036;-72
2021/08/19 10:14:26;;;;;;;11.13;4.82;;;20.40;79.00;;;;;;5092076;28;20056;-73
2021/08/19 10:16:53;;;;;;;6.63;4.18;;;20.40;79.00;;;;;;5075076;28;20135;-73
2021/08/19 10:19:33;;;;;;;5.65;4.30;;;20.40;78.80;;;;;;5074800;28;20309;-71
2021/08/19 10:22:22;;;;;;;9.50;4.88;;;20.40;78.60;;;;;;5075290;28;20040;-71
2021/08/19 10:24:55;;;;;;;8.70;4.85;;;20.40;78.60;;;;;;5074810;28;20041;-73
2021/08/19 10:27:22;;;;;;;6.25;3.97;;;20.40;78.80;;;;;;5074887;28;20123;-71
2021/08/19 10:29:59;;;;;;;4.82;3.65;;;20.40;78.80;;;;;;5075069;28;20425;-72
2021/08/19 10:32:28;;;;;;;5.82;4.38;;;20.40;78.80;;;;;;5075846;28;20054;-72
2021/08/19 10:34:57;;;;;;;6.10;3.95;;;20.40;79.00;;;;;;5079310;28;20105;-72
2021/08/19 10:37:45;;;;;;;6.50;3.80;;;20.40;79.80;;;;;;5078918;28;20079;-72
2021/08/19 10:40:23;;;;;;;7.25;4.07;;;20.50;79.30;;;;;;5078791;28;20416;-72
2021/08/19 10:42:51;;;;;;;5.93;3.90;;;20.50;79.50;;;;;;5078752;28;20431;-72
2021/08/19 10:45:26;;;;;;;6.38;4.32;;;20.50;79.50;;;;;;5078682;28;20432;-72
2021/08/19 10:48:13;;;;;;;7.82;3.85;;;20.50;79.60;;;;;;5078690;28;20119;-72
2021/08/19 10:50:44;;;;;;;5.90;3.90;;;20.50;79.50;;;;;;5061318;28;20048;-73
2021/08/19 10:53:16;;;;;;;4.82;4.15;;;20.50;79.60;;;;;;5079088;28;20115;-73
2021/08/19 10:55:44;;;;;;;5.93;3.58;;;20.50;79.70;;;;;;5078360;28;20056;-73
2021/08/19 10:58:36;;;;;;;10.32;4.00;;;20.60;79.70;;;;;;5078372;28;20040;-74
2021/08/19 11:01:22;;;;;;;6.75;3.80;;;20.50;79.40;;;;;;5067798;28;20063;-73
2021/08/19 11:03:50;;;;;;;5.82;3.50;;;20.60;79.60;;;;;;5078118;28;20443;-73
2021/08/19 11:06:22;;;;;;;7.03;4.30;;;20.60;79.60;;;;;;5078050;28;20071;-72
2021/08/19 11:08:57;;;;;;;5.23;3.60;;;20.60;79.80;;;;;;5078316;28;20098;-73
2021/08/19 11:11:38;;;;;;;7.45;4.22;;;20.60;79.80;;;;;;5086237;28;20495;-72
2021/08/19 11:14:18;;;;;;;6.15;3.92;;;20.60;79.70;;;;;;5098317;28;20123;-72
2021/08/19 11:16:56;;;;;;;5.75;3.78;;;20.60;79.70;;;;;;5098499;28;20039;-74
2021/08/19 11:19:27;;;;;;;9.13;4.32;;;20.60;79.60;;;;;;5098180;28;20115;-72
2021/08/19 11:22:01;;;;;;;10.85;4.13;;;20.60;79.50;;;;;;5083445;28;20071;-72
2021/08/19 11:24:30;;;;;;;5.70;3.97;;;20.60;79.10;;;;;;5078263;28;20093;-71
2021/08/19 11:27:10;;;;;;;9.90;4.65;;;20.60;79.50;;;;;;5079007;28;20090;-71
2021/08/19 11:29:37;;;;;;;11.23;5.22;;;20.60;79.20;;;;;;5087950;28;20055;-72
2021/08/19 11:32:05;;;;;;;16.67;7.93;;;20.70;79.30;;;;;;5097721;28;20043;-74
2021/08/19 11:34:31;;;;;;;8.68;5.50;;;20.60;79.30;;;;;;5098042;28;20103;-72
2021/08/19 11:36:57;;;;;;;14.25;6.88;;;20.60;79.10;;;;;;5091838;28;20056;-72
2021/08/19 11:39:27;;;;;;;10.40;5.57;;;20.60;79.00;;;;;;5082042;28;20051;-73
2021/08/19 11:42:05;;;;;;;12.80;6.55;;;20.70;78.80;;;;;;5096875;28;20032;-73
2021/08/19 11:44:33;;;;;;;11.10;6.55;;;20.70;77.70;;;;;;5086194;28;20049;-72
2021/08/19 11:47:11;;;;;;;8.98;5.55;;;20.70;76.80;;;;;;5077699;28;20032;-72
2021/08/19 11:49:37;;;;;;;10.27;6.63;;;20.60;76.70;;;;;;5077899;28;20250;-72
2021/08/19 11:52:09;;;;;;;11.75;6.82;;;20.50;76.80;;;;;;5077544;28;20103;-72
2021/08/19 11:54:50;;;;;;;11.48;5.90;;;20.50;76.90;;;;;;5077228;28;20071;-72
2021/08/19 11:57:23;;;;;;;10.38;6.28;;;20.50;77.10;;;;;;5090772;28;20362;-71
2021/08/19 12:00:00;;;;;;;10.10;6.00;;;20.50;77.10;;;;;;5095868;28;20048;-74
2021/08/19 12:02:27;;;;;;;11.38;6.18;;;20.50;77.10;;;;;;5096587;28;20056;-72
2021/08/19 12:05:11;;;;;;;10.10;6.18;;;20.50;77.10;;;;;;5096555;28;20024;-72
2021/08/19 12:07:41;;;;;;;9.05;6.68;;;20.50;76.90;;;;;;5095899;28;20040;-74
2021/08/19 12:10:08;;;;;;;9.40;6.45;;;20.60;77.10;;;;;;5096302;28;20043;-73
2021/08/19 12:12:36;;;;;;;8.55;5.90;;;20.60;77.10;;;;;;5096391;28;20443;-74
2021/08/19 12:15:05;;;;;;;9.82;6.57;;;20.60;77.00;;;;;;5096261;28;20063;-72
2021/08/19 12:17:31;;;;;;;8.27;5.70;;;20.60;77.00;;;;;;5096193;28;20109;-72
2021/08/19 12:20:16;;;;;;;10.75;6.30;;;20.60;77.00;;;;;;5096025;28;20064;-73
2021/08/19 12:22:42;;;;;;;11.18;6.30;;;20.60;76.90;;;;;;5096038;28;20111;-73
2021/08/19 12:25:22;;;;;;;8.68;6.00;;;20.60;77.00;;;;;;5095960;28;20525;-73
2021/08/19 12:28:07;;;;;;;9.57;6.40;;;20.60;76.90;;;;;;5095943;28;20130;-73
2021/08/19 12:30:33;;;;;;;10.50;6.13;;;20.70;76.80;;;;;;5095830;28;20044;-72
2021/08/19 12:33:04;;;;;;;9.07;6.38;;;20.60;76.90;;;;;;5088745;28;20377;-71
2021/08/19 12:35:30;;;;;;;16.30;6.95;;;20.60;76.90;;;;;;5076884;28;20040;-72
2021/08/19 12:38:00;;;;;;;14.55;6.13;;;20.60;77.10;;;;;;5076965;28;20119;-71
2021/08/19 12:40:35;;;;;;;9.13;5.75;;;20.70;76.60;;;;;;5082337;28;20040;-72
2021/08/19 12:43:09;;;;;;;10.18;6.03;;;20.60;76.50;;;;;;5096580;28;20378;-71
2021/08/19 12:45:36;;;;;;;13.60;6.57;;;20.70;76.60;;;;;;5097252;28;20070;-71
2021/08/19 12:48:09;;;;;;;18.60;6.13;;;20.60;76.60;;;;;;5096893;28;20036;-75
2021/08/19 12:50:38;;;;;;;13.02;7.00;;;20.60;76.30;;;;;;5097093;28;20333;-75
2021/08/19 12:53:08;;;;;;;10.95;6.22;;;20.60;76.00;;;;;;5097471;28;20054;-71